Terminal Aerodrome Forecast
Issued by NWS Grand Junction, CO

Home | Current Version | Previous Version | Text Only | Print | Product List | Glossary On
Versions: 1 2 3 4 5 6 7 8 9 10 11 12 13 14 15 16 17 18 19 20 21 22 23 24 25 26 27 28 29 30 31 32 33 34 35 36 37 38 39 40 41 42 43 44 45 46 47 48
000
FTUS45 KGJT 241731
TAFGJT
TAF
KGJT 241731Z 2418/2518 32005KT P6SM VCSH SCT030 BKN050
      TEMPO 2418/2419 2SM -SN BR BKN025 OVC050
     FM241900 31004KT P6SM BKN060
     FM250300 03005KT P6SM BKN050
     FM251100 11004KT P6SM BKN050=

USA.gov is the U.S. government's official web portal to all federal, state and local government web resources and services.